YM Jupiter — 9HTF8 — position and weather

sailwx.info

Track history (hours):
 
Tides and Currents Weather Stations Pressure Air Temp Water Temp Dewpoint Dewpoint Depression Visibility Wind Speed Wind Dir Waves Ship Positions

YM Jupiter

Last reported at 2017-Dec-10 05:46 UTC. Time now 2017-Dec-14 08:21 UTC.
Position N 36°35' E 014°01'.

Length 148 m; draft 7.1 m.

Type: Ship. MMSI: 256398000.

Date/timePositionNaut miles runAvg speedWind from/ knotsBaromVisibWave heightAir tempDewpointWater temp
2017-Dec-10 05:46N 36°35' E 014°01'311.6
2017-Dec-10 05:29N 36°34' E 014°05'511.3
2017-Dec-10 05:00N 36°32' E 014°11'611.2
2017-Dec-10 04:26N 36°30' E 014°19'510.9
2017-Dec-10 03:58N 36°28' E 014°25'510.6
2017-Dec-10 03:31N 36°26' E 014°30'510.4
2017-Dec-10 03:00N 36°25' E 014°37'42111.4
2017-Dec-08 14:15N 36°34' E 023°20'1512.7
2017-Dec-08 13:05N 36°47' E 023°28'413.0
2017-Dec-08 12:48N 36°50' E 023°31'612.8
2017-Dec-08 12:19N 36°55' E 023°36'612.9
2017-Dec-08 11:52N 36°60' E 023°40'912.8
2017-Dec-08 11:09N 37°08' E 023°46'1212.7
2017-Dec-08 10:14N 37°17' E 023°54'613.0
2017-Dec-08 09:45N 37°23' E 023°59'313.4
2017-Dec-08 09:31N 37°25' E 024°01'713.5
2017-Dec-08 09:00N 37°31' E 024°05'713.0
2017-Dec-08 08:30N 37°36' E 024°10'913.3
2017-Dec-08 07:51N 37°43' E 024°17'813.3
2017-Dec-08 07:15N 37°48' E 024°25'413.9
2017-Dec-08 07:00N 37°51' E 024°28'813.6
2017-Dec-08 06:25N 37°56' E 024°35'  
2017-Dec-03 19:34N 37°58' E 024°39'112.5
2017-Dec-03 19:27N 37°56' E 024°38'612.3
2017-Dec-03 19:00N 37°52' E 024°33'611.9
2017-Dec-03 18:30N 37°49' E 024°28'611.3
2017-Dec-03 18:00N 37°45' E 024°22'711.2
2017-Dec-03 17:21N 37°40' E 024°16'511.6
2017-Dec-03 16:54N 37°35' E 024°12'511.7
2017-Dec-03 16:30N 37°31' E 024°09'611.6
2017-Dec-03 16:00N 37°26' E 024°05'611.5
2017-Dec-03 15:30N 37°22' E 024°01'611.5
2017-Dec-03 15:00N 37°17' E 023°57'611.6
2017-Dec-03 14:30N 37°12' E 023°53'611.6
2017-Dec-03 14:01N 37°07' E 023°50'611.8
2017-Dec-03 13:30N 37°02' E 023°46'611.7
2017-Dec-03 13:00N 36°57' E 023°42'612.0
2017-Dec-03 12:29N 36°52' E 023°38'1711.6
2017-Dec-03 11:01N 36°39' E 023°25'111.7
2017-Dec-03 10:57N 36°38' E 023°24'  
2017-Dec-01 00:18N 44°06' E 014°03'813.6
2017-Nov-30 23:45N 44°12' E 013°57'313.5
2017-Nov-30 23:30N 44°15' E 013°54'713.6
2017-Nov-30 23:00N 44°20' E 013°48'713.6
2017-Nov-30 22:30N 44°26' E 013°43'713.7
2017-Nov-30 22:00N 44°32' E 013°38'713.8
2017-Nov-30 21:30N 44°37' E 013°33'713.7
2017-Nov-30 21:00N 44°43' E 013°27'713.6
2017-Nov-30 20:30N 44°49' E 013°22'713.6
2017-Nov-30 20:00N 44°54' E 013°17'713.6
2017-Nov-30 19:30N 44°60' E 013°11'713.4
2017-Nov-30 19:00N 45°05' E 013°05'713.2
2017-Nov-30 18:30N 45°11' E 013°01'713.0
2017-Nov-30 18:00N 45°17' E 012°58'4 7.9
2017-Nov-30 17:30N 45°18' E 012°52'1 1.2
2017-Nov-30 17:00N 45°18' E 012°52'1 1.3
2017-Nov-30 16:30N 45°19' E 012°52'1 1.4
2017-Nov-30 16:00N 45°20' E 012°52'1 1.2
2017-Nov-30 15:30N 45°20' E 012°52'1 1.2
2017-Nov-30 14:58N 45°20' E 012°51'0 0.2
2017-Nov-30 14:28N 45°20' E 012°51'0 0.0
2017-Nov-30 13:55N 45°20' E 012°51'0 0.0
2017-Nov-30 13:25N 45°20' E 012°51'0 0.0
2017-Nov-30 12:58N 45°20' E 012°51'0 0.0
2017-Nov-30 12:25N 45°20' E 012°51'0 0.0
2017-Nov-30 11:55N 45°20' E 012°51'0 0.1
2017-Nov-30 11:28N 45°20' E 012°51'0 0.0
2017-Nov-30 10:46N 45°20' E 012°51'0 0.0
2017-Nov-30 10:28N 45°20' E 012°51'0 0.0
2017-Nov-30 09:58N 45°20' E 012°51'0 0.0
2017-Nov-30 09:28N 45°20' E 012°51'0 0.0
2017-Nov-30 08:58N 45°20' E 012°51'0 0.0
2017-Nov-30 08:28N 45°20' E 012°51'0 0.0
2017-Nov-30 07:55N 45°20' E 012°51'0 0.0
2017-Nov-30 07:28N 45°20' E 012°51'0 0.1
2017-Nov-30 06:52N 45°20' E 012°51'0 0.0
2017-Nov-30 06:25N 45°20' E 012°51'0 0.0
2017-Nov-30 05:55N 45°20' E 012°51'  
Track history (hours):
 
Tides and Currents Weather Stations Pressure Air Temp Water Temp Dewpoint Dewpoint Depression Visibility Wind Speed Wind Dir Waves Ship Positions

YM Jupiter

Last reported at 2017-Dec-10 05:46 UTC. Time now 2017-Dec-14 08:21 UTC.
Position N 36°35' E 014°01'.

Length 148 m; draft 7.1 m.

Type: Ship. MMSI: 256398000.

Date/timePositionNaut miles runAvg speedWind from/ knotsBaromVisibWave heightAir tempDewpointWater temp
2017-Dec-10 05:46N 36°35' E 014°01'311.6
2017-Dec-10 05:29N 36°34' E 014°05'511.3
2017-Dec-10 05:00N 36°32' E 014°11'611.2
2017-Dec-10 04:26N 36°30' E 014°19'510.9
2017-Dec-10 03:58N 36°28' E 014°25'510.6
2017-Dec-10 03:31N 36°26' E 014°30'510.4
2017-Dec-10 03:00N 36°25' E 014°37'42111.4
2017-Dec-08 14:15N 36°34' E 023°20'1512.7
2017-Dec-08 13:05N 36°47' E 023°28'413.0
2017-Dec-08 12:48N 36°50' E 023°31'612.8
2017-Dec-08 12:19N 36°55' E 023°36'612.9
2017-Dec-08 11:52N 36°60' E 023°40'912.8
2017-Dec-08 11:09N 37°08' E 023°46'1212.7
2017-Dec-08 10:14N 37°17' E 023°54'613.0
2017-Dec-08 09:45N 37°23' E 023°59'313.4
2017-Dec-08 09:31N 37°25' E 024°01'713.5
2017-Dec-08 09:00N 37°31' E 024°05'713.0
2017-Dec-08 08:30N 37°36' E 024°10'913.3
2017-Dec-08 07:51N 37°43' E 024°17'813.3
2017-Dec-08 07:15N 37°48' E 024°25'413.9
2017-Dec-08 07:00N 37°51' E 024°28'813.6
2017-Dec-08 06:25N 37°56' E 024°35'  
2017-Dec-03 19:34N 37°58' E 024°39'112.5
2017-Dec-03 19:27N 37°56' E 024°38'612.3
2017-Dec-03 19:00N 37°52' E 024°33'611.9
2017-Dec-03 18:30N 37°49' E 024°28'611.3
2017-Dec-03 18:00N 37°45' E 024°22'711.2
2017-Dec-03 17:21N 37°40' E 024°16'511.6
2017-Dec-03 16:54N 37°35' E 024°12'511.7
2017-Dec-03 16:30N 37°31' E 024°09'611.6
2017-Dec-03 16:00N 37°26' E 024°05'611.5
2017-Dec-03 15:30N 37°22' E 024°01'611.5
2017-Dec-03 15:00N 37°17' E 023°57'611.6
2017-Dec-03 14:30N 37°12' E 023°53'611.6
2017-Dec-03 14:01N 37°07' E 023°50'611.8
2017-Dec-03 13:30N 37°02' E 023°46'611.7
2017-Dec-03 13:00N 36°57' E 023°42'612.0
2017-Dec-03 12:29N 36°52' E 023°38'1711.6
2017-Dec-03 11:01N 36°39' E 023°25'111.7
2017-Dec-03 10:57N 36°38' E 023°24'  
2017-Dec-01 00:18N 44°06' E 014°03'813.6
2017-Nov-30 23:45N 44°12' E 013°57'313.5
2017-Nov-30 23:30N 44°15' E 013°54'713.6
2017-Nov-30 23:00N 44°20' E 013°48'713.6
2017-Nov-30 22:30N 44°26' E 013°43'713.7
2017-Nov-30 22:00N 44°32' E 013°38'713.8
2017-Nov-30 21:30N 44°37' E 013°33'713.7
2017-Nov-30 21:00N 44°43' E 013°27'713.6
2017-Nov-30 20:30N 44°49' E 013°22'713.6
2017-Nov-30 20:00N 44°54' E 013°17'713.6
2017-Nov-30 19:30N 44°60' E 013°11'713.4
2017-Nov-30 19:00N 45°05' E 013°05'713.2
2017-Nov-30 18:30N 45°11' E 013°01'713.0
2017-Nov-30 18:00N 45°17' E 012°58'4 7.9
2017-Nov-30 17:30N 45°18' E 012°52'1 1.2
2017-Nov-30 17:00N 45°18' E 012°52'1 1.3
2017-Nov-30 16:30N 45°19' E 012°52'1 1.4
2017-Nov-30 16:00N 45°20' E 012°52'1 1.2
2017-Nov-30 15:30N 45°20' E 012°52'1 1.2
2017-Nov-30 14:58N 45°20' E 012°51'0 0.2
2017-Nov-30 14:28N 45°20' E 012°51'0 0.0
2017-Nov-30 13:55N 45°20' E 012°51'0 0.0
2017-Nov-30 13:25N 45°20' E 012°51'0 0.0
2017-Nov-30 12:58N 45°20' E 012°51'0 0.0
2017-Nov-30 12:25N 45°20' E 012°51'0 0.0
2017-Nov-30 11:55N 45°20' E 012°51'0 0.1
2017-Nov-30 11:28N 45°20' E 012°51'0 0.0
2017-Nov-30 10:46N 45°20' E 012°51'0 0.0
2017-Nov-30 10:28N 45°20' E 012°51'0 0.0
2017-Nov-30 09:58N 45°20' E 012°51'0 0.0
2017-Nov-30 09:28N 45°20' E 012°51'0 0.0
2017-Nov-30 08:58N 45°20' E 012°51'0 0.0
2017-Nov-30 08:28N 45°20' E 012°51'0 0.0
2017-Nov-30 07:55N 45°20' E 012°51'0 0.0
2017-Nov-30 07:28N 45°20' E 012°51'0 0.1
2017-Nov-30 06:52N 45°20' E 012°51'0 0.0
2017-Nov-30 06:25N 45°20' E 012°51'0 0.0
2017-Nov-30 05:55N 45°20' E 012°51'  

Dump ship's entire track history